Rio Verde de Mato Grosso, Brazil
Current Conditions -  °F | °C
As of 5:00 AM on Thursday 29 Jan 2015 (Local Time) from SBCG Reporting Station
Scattered Clouds Scattered Clouds  
Wind Chill: 72°   Ceiling: Unl
Heat Index: 72°   Visibility: 6mi
Dew Point: 68°   Wind: 8mph
Humidity: 88%   Direction: 350°N
Pressure: 29.94"   Gusts: NA
Location:  18.92°S, 54.84°W
Report Text: SBCG 290800Z 35007KT 9999 SCT015 SCT100 22/20 Q1014
Loading
Personal Weather Stations






























Interactive Weather Map New forecast layout! Learn more

10-Day Weather Forecast

Advertisements
Track Severe Weather on mobile